Sacramento, California
Traffic Map
Current Weather Conditions
Sacramento, California
Clear
Clear
73°
Feels Like: 73°
Wind Chill: 73° Ceiling: Unl
Heat Index: 73° Visibility: 10mi
Dew Point: 55° Wind: 15mph
Humidity: 53% Direction: 210° (SSW)
Pressure: 29.78in Gusts: 0mph
Raw Report DataKSAC 222353Z 21013KT 10SM CLR 23/13 A2978 RMK AO2 SLP085 T02280128 10239 20189 56013
Traffic Incident Summary
Active as of:
Severity:
Category:
InformationThere was an issue retrieving the traffic information for this location. Please try a different location or try again shortly.
Advertisements